createdAt,value
2022-09-15T00:01:03.180Z,16.01
2022-09-15T00:03:29.829Z,15.99
2022-09-15T00:05:56.375Z,15.97
2022-09-15T00:08:23.522Z,15.95
2022-09-15T00:11:06.105Z,15.92
2022-09-15T00:13:33.768Z,15.89
2022-09-15T00:16:00.158Z,15.88
2022-09-15T00:18:26.588Z,15.86
2022-09-15T00:20:53.000Z,15.83
2022-09-15T00:23:19.413Z,15.80
2022-09-15T00:25:48.291Z,15.77
2022-09-15T00:28:15.755Z,15.72
2022-09-15T00:30:44.133Z,15.72
2022-09-15T00:33:11.723Z,15.69
2022-09-15T00:35:42.920Z,15.67
2022-09-15T00:38:11.029Z,15.66
2022-09-15T00:40:48.977Z,15.64
2022-09-15T00:43:16.855Z,15.64
2022-09-15T00:45:43.534Z,15.65
2022-09-15T00:48:13.470Z,15.62
2022-09-15T00:50:41.614Z,15.59
2022-09-15T00:53:09.856Z,15.57
2022-09-15T00:55:41.574Z,15.55
2022-09-15T00:58:13.186Z,15.56
2022-09-15T01:00:45.464Z,15.55
2022-09-15T01:03:11.870Z,15.56
2022-09-15T01:05:42.319Z,15.55
2022-09-15T01:08:14.160Z,15.55
2022-09-15T01:10:41.159Z,15.56
2022-09-15T01:13:10.683Z,15.55
2022-09-15T01:16:00.386Z,15.55
2022-09-15T01:18:43.009Z,15.55
2022-09-15T01:21:37.158Z,15.56
2022-09-15T01:24:25.338Z,15.56
2022-09-15T01:27:13.871Z,15.55
2022-09-15T01:30:05.605Z,15.51
2022-09-15T01:32:58.130Z,15.51
2022-09-15T01:35:31.844Z,15.49
2022-09-15T01:38:02.639Z,15.47
2022-09-15T01:40:33.772Z,15.46
2022-09-15T01:43:01.305Z,15.45
2022-09-15T01:45:30.476Z,15.42
2022-09-15T01:47:57.904Z,15.40
2022-09-15T01:50:27.539Z,15.38
2022-09-15T01:52:57.168Z,15.37
2022-09-15T01:55:31.771Z,15.34
2022-09-15T01:57:59.369Z,15.32
2022-09-15T02:00:25.772Z,15.32
2022-09-15T02:02:59.239Z,15.30
2022-09-15T02:05:41.332Z,15.31
2022-09-15T02:08:25.368Z,15.27
2022-09-15T02:11:04.453Z,15.27
2022-09-15T02:13:39.831Z,15.26
2022-09-15T02:16:15.875Z,15.21
2022-09-15T02:18:49.376Z,15.19
2022-09-15T02:21:20.494Z,15.17
2022-09-15T02:23:54.873Z,15.11
2022-09-15T02:26:25.267Z,15.08
2022-09-15T02:28:53.555Z,15.04
2022-09-15T02:31:22.160Z,15.00
2022-09-15T02:33:57.304Z,14.97
2022-09-15T02:36:24.637Z,14.92
2022-09-15T02:38:54.165Z,14.90
2022-09-15T02:41:20.973Z,14.87
2022-09-15T02:43:48.352Z,14.86
2022-09-15T02:46:19.479Z,14.84
2022-09-15T02:48:45.886Z,14.83
2022-09-15T02:51:12.500Z,14.81
2022-09-15T02:53:38.903Z,14.81
2022-09-15T02:56:06.617Z,14.79
2022-09-15T02:58:33.986Z,14.81
2022-09-15T03:01:04.808Z,14.81
2022-09-15T03:03:32.121Z,14.80
2022-09-15T03:06:17.250Z,14.79
2022-09-15T03:08:55.040Z,14.75
2022-09-15T03:11:23.408Z,14.75
2022-09-15T03:13:54.090Z,14.72
2022-09-15T03:16:20.523Z,14.70
2022-09-15T03:18:47.050Z,14.70
2022-09-15T03:21:14.515Z,14.70
2022-09-15T03:23:41.694Z,14.70
2022-09-15T03:26:09.341Z,14.71
2022-09-15T03:28:37.158Z,14.71
2022-09-15T03:31:03.981Z,14.69
2022-09-15T03:33:30.636Z,14.69
2022-09-15T03:35:57.429Z,14.70
2022-09-15T03:38:24.697Z,14.69
2022-09-15T03:40:59.893Z,14.70
2022-09-15T03:43:27.119Z,14.71
2022-09-15T03:45:54.339Z,14.71
2022-09-15T03:48:21.053Z,14.68
2022-09-15T03:50:47.530Z,14.68
2022-09-15T03:53:13.979Z,14.64
2022-09-15T03:55:40.371Z,14.62
2022-09-15T03:58:06.777Z,14.58
2022-09-15T04:00:33.330Z,14.55
2022-09-15T04:02:59.787Z,14.55
2022-09-15T04:05:26.205Z,14.51
2022-09-15T04:07:52.622Z,14.51
2022-09-15T04:10:19.042Z,14.50
2022-09-15T04:12:45.486Z,14.49
2022-09-15T04:15:11.915Z,14.45
2022-09-15T04:17:38.289Z,14.43
2022-09-15T04:20:05.090Z,14.41
2022-09-15T04:22:32.378Z,14.41
2022-09-15T04:24:58.775Z,14.37
2022-09-15T04:27:25.183Z,14.32
2022-09-15T04:29:52.430Z,14.29
2022-09-15T04:32:19.482Z,14.27
2022-09-15T04:34:46.107Z,14.25
2022-09-15T04:37:12.604Z,14.21
2022-09-15T04:39:39.065Z,14.18
2022-09-15T04:42:07.800Z,14.17
2022-09-15T04:44:34.331Z,14.15
2022-09-15T04:47:00.772Z,14.13
2022-09-15T04:49:28.592Z,14.13
2022-09-15T04:51:55.165Z,14.11
2022-09-15T04:54:21.716Z,14.13
2022-09-15T04:56:48.878Z,14.12
2022-09-15T04:59:17.131Z,14.12
2022-09-15T05:01:43.751Z,14.13
2022-09-15T05:04:10.283Z,14.14
2022-09-15T05:06:37.003Z,14.15
2022-09-15T05:09:09.737Z,14.16
2022-09-15T05:11:36.625Z,14.18
2022-09-15T05:14:03.269Z,14.17
2022-09-15T05:16:30.463Z,14.19
2022-09-15T05:18:59.032Z,14.19
2022-09-15T05:21:26.074Z,14.21
2022-09-15T05:23:52.825Z,14.24
2022-09-15T05:26:21.690Z,14.26
2022-09-15T05:28:48.103Z,14.28
2022-09-15T05:31:31.434Z,14.30
2022-09-15T05:34:00.273Z,14.33
2022-09-15T05:36:26.673Z,14.35
2022-09-15T05:38:53.856Z,14.42
2022-09-15T05:41:20.770Z,14.45
2022-09-15T05:43:47.949Z,14.47
2022-09-15T05:46:15.602Z,14.51
2022-09-15T05:48:42.153Z,14.54
2022-09-15T05:51:08.642Z,14.58
2022-09-15T05:53:35.665Z,14.61
2022-09-15T05:56:05.101Z,14.65
2022-09-15T05:58:32.383Z,14.69
2022-09-15T06:01:05.372Z,14.74
2022-09-15T06:03:31.931Z,14.78
2022-09-15T06:05:59.181Z,14.83
2022-09-15T06:08:25.634Z,14.88
2022-09-15T06:10:52.010Z,14.94
2022-09-15T06:13:18.406Z,14.98
2022-09-15T06:15:44.968Z,15.02
2022-09-15T06:18:11.400Z,15.11
2022-09-15T06:20:37.960Z,15.08
2022-09-15T06:23:04.389Z,15.18
2022-09-15T06:25:30.774Z,15.24
2022-09-15T06:27:57.189Z,15.26
2022-09-15T06:30:23.563Z,15.14
2022-09-15T06:32:49.967Z,15.29
2022-09-15T06:35:16.376Z,15.41
2022-09-15T06:37:42.810Z,15.52
2022-09-15T06:40:10.149Z,15.73
2022-09-15T06:42:36.613Z,15.94
2022-09-15T06:45:04.261Z,15.98
2022-09-15T06:47:33.897Z,16.04
2022-09-15T06:50:01.065Z,16.08
2022-09-15T06:52:27.693Z,16.06
2022-09-15T06:54:54.160Z,16.07
2022-09-15T06:57:20.582Z,15.98
2022-09-15T06:59:46.979Z,16.04
2022-09-15T07:02:13.639Z,16.07
2022-09-15T07:04:40.151Z,16.09
2022-09-15T07:07:06.615Z,16.08
2022-09-15T07:09:33.040Z,16.00
2022-09-15T07:11:59.446Z,16.08
2022-09-15T07:14:25.854Z,16.14
2022-09-15T07:16:52.297Z,16.10
2022-09-15T07:19:18.723Z,16.19
2022-09-15T07:21:45.142Z,16.19
2022-09-15T07:24:12.698Z,16.28
2022-09-15T07:26:39.131Z,16.39
2022-09-15T07:29:06.620Z,16.46
2022-09-15T07:31:35.343Z,16.48
2022-09-15T07:34:02.422Z,16.61
2022-09-15T07:36:29.826Z,16.63
2022-09-15T07:38:56.246Z,16.63
2022-09-15T07:41:27.466Z,16.72
2022-09-15T07:43:56.264Z,16.78
2022-09-15T07:46:24.126Z,16.75
2022-09-15T07:48:52.239Z,16.76
2022-09-15T07:51:19.180Z,16.71
2022-09-15T07:53:47.757Z,16.65
2022-09-15T07:56:14.679Z,16.67
2022-09-15T07:58:41.077Z,16.68
2022-09-15T08:01:09.190Z,16.76
2022-09-15T08:03:35.619Z,16.83
2022-09-15T08:06:02.940Z,16.90
2022-09-15T08:08:30.447Z,16.86
2022-09-15T08:10:58.031Z,16.82
2022-09-15T08:13:24.970Z,16.88
2022-09-15T08:15:52.113Z,16.73
2022-09-15T08:18:18.546Z,16.82
2022-09-15T08:20:44.916Z,16.87
2022-09-15T08:23:11.553Z,16.90
2022-09-15T08:25:38.719Z,16.82
2022-09-15T08:28:05.248Z,16.92
2022-09-15T08:30:32.133Z,16.95
2022-09-15T08:32:58.575Z,17.03
2022-09-15T08:35:25.031Z,17.07
2022-09-15T08:37:53.717Z,17.08
2022-09-15T08:40:27.327Z,17.00
2022-09-15T08:42:56.285Z,17.10
2022-09-15T08:45:28.558Z,17.09
2022-09-15T08:47:59.911Z,17.12
2022-09-15T08:50:38.857Z,17.11
2022-09-15T08:53:15.618Z,17.21
2022-09-15T08:55:55.662Z,17.27
2022-09-15T08:58:27.175Z,17.28
2022-09-15T09:01:39.472Z,17.33
2022-09-15T09:04:23.626Z,17.38
2022-09-15T09:07:09.757Z,17.40
2022-09-15T09:09:52.820Z,17.38
2022-09-15T09:12:41.232Z,17.51
2022-09-15T09:15:13.645Z,17.51
2022-09-15T09:18:02.875Z,17.55
2022-09-15T09:20:37.887Z,17.60
2022-09-15T09:23:09.096Z,17.59
2022-09-15T09:25:36.701Z,17.60
2022-09-15T09:28:04.837Z,17.62
2022-09-15T09:30:32.904Z,17.73
2022-09-15T09:33:08.839Z,17.73
2022-09-15T09:35:49.584Z,17.78
2022-09-15T09:38:21.644Z,17.92
2022-09-15T09:40:48.094Z,18.02
2022-09-15T09:43:15.354Z,18.05
2022-09-15T09:45:41.905Z,18.13
2022-09-15T09:48:19.122Z,18.17
2022-09-15T09:50:46.194Z,18.21
2022-09-15T09:53:26.184Z,18.30
2022-09-15T09:55:55.202Z,18.23
2022-09-15T09:58:25.617Z,18.30
2022-09-15T10:00:52.871Z,18.36
2022-09-15T10:03:29.399Z,18.44
2022-09-15T10:06:05.063Z,18.44
2022-09-15T10:08:31.649Z,18.43
2022-09-15T10:11:06.671Z,18.42
2022-09-15T10:13:34.953Z,18.51
2022-09-15T10:16:02.724Z,18.52
2022-09-15T10:18:34.902Z,18.55
2022-09-15T10:21:03.670Z,18.68
2022-09-15T10:23:31.582Z,18.71
2022-09-15T10:26:17.839Z,18.77
2022-09-15T10:28:44.926Z,18.72
2022-09-15T10:31:28.646Z,18.82
2022-09-15T10:33:55.287Z,18.89
2022-09-15T10:36:24.535Z,18.91
2022-09-15T10:39:04.341Z,18.86
2022-09-15T10:41:39.357Z,18.91
2022-09-15T10:44:24.549Z,18.96
2022-09-15T10:47:07.733Z,18.79
2022-09-15T10:49:49.282Z,18.89
2022-09-15T10:52:28.947Z,18.99
2022-09-15T10:55:31.827Z,19.02
2022-09-15T10:58:24.666Z,18.96
2022-09-15T11:01:02.796Z,19.06
2022-09-15T11:03:38.744Z,19.03
2022-09-15T11:06:13.970Z,19.04
2022-09-15T11:09:05.028Z,19.06
2022-09-15T11:11:56.775Z,19.11
2022-09-15T11:14:26.125Z,19.04
2022-09-15T11:17:03.430Z,19.02
2022-09-15T11:20:03.943Z,18.97
2022-09-15T11:22:35.111Z,19.10
2022-09-15T11:25:22.206Z,19.14
2022-09-15T11:28:23.515Z,19.29
2022-09-15T11:31:01.038Z,19.39
2022-09-15T11:33:32.325Z,19.40
2022-09-15T11:36:03.451Z,19.51
2022-09-15T11:38:37.386Z,19.51
2022-09-15T11:41:16.076Z,19.43
2022-09-15T11:43:55.011Z,19.50
2022-09-15T11:46:26.800Z,19.59
2022-09-15T11:49:01.668Z,19.67
2022-09-15T11:51:28.855Z,19.70
2022-09-15T11:54:23.118Z,19.71
2022-09-15T11:56:51.444Z,19.72
2022-09-15T11:59:28.655Z,19.79
2022-09-15T12:02:37.416Z,19.86
2022-09-15T12:05:25.550Z,19.89
2022-09-15T12:07:59.463Z,19.85
2022-09-15T12:10:30.534Z,19.89
2022-09-15T12:13:00.097Z,19.90
2022-09-15T12:15:29.380Z,19.89
2022-09-15T12:18:06.707Z,19.95
2022-09-15T12:21:15.677Z,20.01
2022-09-15T12:23:50.265Z,20.01
2022-09-15T12:26:21.378Z,19.96
2022-09-15T12:28:51.918Z,20.02
2022-09-15T12:31:28.225Z,20.02
2022-09-15T12:33:58.792Z,19.96
2022-09-15T12:36:43.204Z,20.02
2022-09-15T12:39:18.618Z,20.06
2022-09-15T12:42:16.481Z,19.97
2022-09-15T12:44:50.372Z,19.99
2022-09-15T12:47:29.764Z,19.86
2022-09-15T12:50:04.628Z,19.83
2022-09-15T12:52:31.305Z,19.75
2022-09-15T12:55:01.481Z,19.69
2022-09-15T12:57:37.778Z,19.56
2022-09-15T13:00:27.504Z,19.52
2022-09-15T13:02:54.117Z,19.39
2022-09-15T13:05:41.830Z,19.29
2022-09-15T13:08:15.177Z,19.15
2022-09-15T13:10:43.112Z,18.96
2022-09-15T13:13:22.579Z,18.73
2022-09-15T13:15:50.966Z,18.85
2022-09-15T13:18:18.906Z,19.01
2022-09-15T13:20:59.871Z,19.17
2022-09-15T13:23:29.770Z,19.26
2022-09-15T13:25:57.744Z,19.36
2022-09-15T13:28:24.658Z,19.42
2022-09-15T13:31:10.331Z,19.52
2022-09-15T13:40:27.395Z,19.52
2022-09-15T13:43:06.266Z,19.61
2022-09-15T13:46:12.469Z,19.64
2022-09-15T13:49:03.646Z,19.82
2022-09-15T13:51:31.272Z,19.79
2022-09-15T13:54:03.196Z,19.91
2022-09-15T13:56:32.921Z,19.92
2022-09-15T13:59:08.527Z,19.95
2022-09-15T14:01:40.442Z,19.99
2022-09-15T14:04:13.751Z,20.03
2022-09-15T14:06:41.724Z,20.00
2022-09-15T14:09:17.693Z,19.98
2022-09-15T14:11:54.298Z,19.93
2022-09-15T14:14:32.343Z,19.96
2022-09-15T14:16:58.941Z,19.93
2022-09-15T14:19:36.384Z,20.01
2022-09-15T14:22:17.908Z,20.02
2022-09-15T14:24:44.938Z,20.02
2022-09-15T14:27:11.741Z,19.95
2022-09-15T14:29:42.719Z,20.04
2022-09-15T14:32:13.895Z,20.00
2022-09-15T14:34:41.974Z,20.05
2022-09-15T14:37:17.429Z,20.15
2022-09-15T14:39:51.535Z,20.20
2022-09-15T14:42:30.618Z,20.22
2022-09-15T14:48:01.700Z,20.29
2022-09-15T14:50:32.840Z,20.21
2022-09-15T14:53:08.066Z,20.24
2022-09-15T14:55:59.112Z,20.31
2022-09-15T14:58:31.689Z,20.38
2022-09-15T15:01:10.204Z,20.36
2022-09-15T15:03:46.228Z,20.36
2022-09-15T15:06:35.099Z,20.36
2022-09-15T15:09:41.300Z,20.29
2022-09-15T15:12:16.656Z,20.21
2022-09-15T15:14:43.265Z,20.08
2022-09-15T15:17:38.957Z,19.96
2022-09-15T15:20:08.687Z,19.92
2022-09-15T15:22:39.247Z,19.86
2022-09-15T15:25:27.508Z,19.86
2022-09-15T15:27:58.372Z,19.85
2022-09-15T15:30:32.008Z,19.76
2022-09-15T15:33:19.601Z,19.76
2022-09-15T15:35:46.401Z,19.75
2022-09-15T15:38:16.882Z,19.73
2022-09-15T15:40:43.834Z,19.77
2022-09-15T15:43:26.447Z,19.68
2022-09-15T15:46:01.406Z,19.75
2022-09-15T15:48:38.480Z,19.76
2022-09-15T15:51:06.527Z,19.68
2022-09-15T15:53:33.046Z,19.64
2022-09-15T15:56:00.728Z,19.56
2022-09-15T15:58:27.149Z,19.54
2022-09-15T16:00:57.220Z,19.48
2022-09-15T16:03:24.654Z,19.22
2022-09-15T16:05:57.622Z,19.26
2022-09-15T16:08:30.118Z,19.29
2022-09-15T16:10:56.970Z,19.31
2022-09-15T16:13:25.328Z,19.27
2022-09-15T16:15:57.518Z,19.15
2022-09-15T16:18:24.071Z,19.05
2022-09-15T16:20:50.459Z,18.93
2022-09-15T16:23:19.275Z,18.84
2022-09-15T16:25:57.567Z,18.91
2022-09-15T16:28:23.985Z,18.87
2022-09-15T16:30:50.487Z,18.91
2022-09-15T16:33:18.277Z,18.84
2022-09-15T16:35:53.108Z,18.78
2022-09-15T16:38:21.687Z,18.82
2022-09-15T16:40:49.114Z,18.79
2022-09-15T16:43:18.104Z,18.86
2022-09-15T16:45:44.720Z,18.90
2022-09-15T16:48:11.650Z,18.86
2022-09-15T16:50:42.662Z,19.07
2022-09-15T16:53:14.302Z,19.01
2022-09-15T16:55:55.587Z,18.90
2022-09-15T16:58:22.586Z,18.88
2022-09-15T17:00:51.388Z,18.88
2022-09-15T17:03:19.614Z,18.83
2022-09-15T17:05:48.836Z,18.70
2022-09-15T17:08:16.401Z,18.68
2022-09-15T17:10:43.125Z,18.66
2022-09-15T17:13:13.324Z,18.61
2022-09-15T17:15:40.873Z,18.52
2022-09-15T17:18:08.268Z,18.48
2022-09-15T17:20:39.236Z,18.43
2022-09-15T17:23:23.436Z,18.37
2022-09-15T17:25:52.836Z,18.35
2022-09-15T17:28:21.137Z,18.30
2022-09-15T17:30:48.887Z,18.28
2022-09-15T17:33:16.423Z,18.25
2022-09-15T17:35:43.117Z,18.21
2022-09-15T17:38:09.547Z,18.16
2022-09-15T17:40:36.016Z,18.15
2022-09-15T17:43:02.633Z,18.09
2022-09-15T17:45:36.628Z,18.06
2022-09-15T17:48:04.295Z,18.01
2022-09-15T17:50:33.838Z,17.94
2022-09-15T17:53:00.598Z,17.76
2022-09-15T17:55:29.690Z,17.72
2022-09-15T17:57:58.973Z,17.67
2022-09-15T18:00:27.211Z,17.60
2022-09-15T18:02:55.624Z,17.61
2022-09-15T18:05:25.252Z,17.58
2022-09-15T18:07:54.422Z,17.58
2022-09-15T18:10:21.541Z,17.55
2022-09-15T18:12:50.068Z,17.52
2022-09-15T18:15:22.373Z,17.47
2022-09-15T18:17:50.287Z,17.45
2022-09-15T18:20:23.192Z,17.41
2022-09-15T18:22:49.858Z,17.38
2022-09-15T18:25:20.428Z,17.32
2022-09-15T18:27:49.200Z,17.28
2022-09-15T18:30:16.645Z,17.22
2022-09-15T18:32:43.587Z,17.21
2022-09-15T18:35:14.176Z,17.16
2022-09-15T18:37:45.854Z,17.10
2022-09-15T18:40:15.050Z,17.07
2022-09-15T18:42:41.494Z,17.06
2022-09-15T18:45:10.119Z,17.03
2022-09-15T18:47:36.840Z,17.02
2022-09-15T18:50:06.412Z,17.00
2022-09-15T18:52:37.609Z,16.91
2022-09-15T18:55:05.778Z,16.91
2022-09-15T18:57:36.299Z,16.83
2022-09-15T19:00:12.089Z,16.78
2022-09-15T19:02:38.692Z,16.78
2022-09-15T19:05:05.784Z,16.78
2022-09-15T19:07:32.186Z,16.75
2022-09-15T19:09:58.952Z,16.71
2022-09-15T19:12:25.375Z,16.70
2022-09-15T19:14:52.494Z,16.67
2022-09-15T19:17:19.026Z,16.67
2022-09-15T19:19:46.364Z,16.63
2022-09-15T19:22:12.895Z,16.58
2022-09-15T19:24:40.404Z,16.55
2022-09-15T19:27:08.139Z,16.58
2022-09-15T19:29:35.925Z,16.59
2022-09-15T19:32:05.011Z,16.61
2022-09-15T19:34:32.207Z,16.53
2022-09-15T19:36:58.683Z,16.57
2022-09-15T19:39:25.432Z,16.58
2022-09-15T19:41:52.030Z,16.57
2022-09-15T19:44:18.469Z,16.55
2022-09-15T19:46:44.940Z,16.55
2022-09-15T19:49:11.498Z,16.52
2022-09-15T19:51:38.339Z,16.44
2022-09-15T19:54:05.211Z,16.42
2022-09-15T19:56:31.775Z,16.34
2022-09-15T19:58:58.957Z,16.25
2022-09-15T20:01:27.631Z,16.25
2022-09-15T20:03:55.845Z,16.21
2022-09-15T20:06:22.856Z,16.12
2022-09-15T20:08:57.669Z,16.09
2022-09-15T20:11:26.214Z,16.06
2022-09-15T20:13:54.034Z,16.08
2022-09-15T20:16:21.478Z,15.96
2022-09-15T20:18:49.289Z,15.95
2022-09-15T20:21:38.823Z,15.86
2022-09-15T20:24:08.282Z,15.78
2022-09-15T20:26:34.775Z,15.76
2022-09-15T20:29:02.279Z,15.69
2022-09-15T20:31:30.159Z,15.67
2022-09-15T20:33:56.575Z,15.62
2022-09-15T20:36:25.292Z,15.60
2022-09-15T20:38:52.965Z,15.63
2022-09-15T20:41:22.828Z,15.60
2022-09-15T20:43:49.933Z,15.54
2022-09-15T20:46:18.930Z,15.54
2022-09-15T20:48:46.495Z,15.55
2022-09-15T20:51:15.421Z,15.55
2022-09-15T20:53:44.369Z,15.48
2022-09-15T20:56:11.704Z,15.35
2022-09-15T20:58:38.676Z,15.36
2022-09-15T21:01:10.322Z,15.36
2022-09-15T21:03:38.103Z,15.37
2022-09-15T21:06:07.638Z,15.38
2022-09-15T21:08:34.728Z,15.38
2022-09-15T21:11:01.971Z,15.37
2022-09-15T21:13:33.682Z,15.36
2022-09-15T21:16:02.108Z,15.31
2022-09-15T21:18:34.080Z,15.30
2022-09-15T21:21:08.003Z,15.29
2022-09-15T21:23:40.746Z,15.31
2022-09-15T21:26:09.673Z,15.23
2022-09-15T21:28:36.533Z,15.25
2022-09-15T21:31:06.300Z,15.25
2022-09-15T21:33:33.318Z,15.25
2022-09-15T21:36:11.545Z,15.20
2022-09-15T21:38:40.402Z,15.20
2022-09-15T21:41:08.214Z,15.18
2022-09-15T21:43:39.197Z,15.17
2022-09-15T21:46:08.507Z,15.13
2022-09-15T21:48:35.568Z,15.12
2022-09-15T21:51:03.901Z,15.11
2022-09-15T21:53:30.535Z,15.10
2022-09-15T21:56:00.821Z,15.09
2022-09-15T21:58:28.145Z,15.07
2022-09-15T22:00:54.610Z,15.06
2022-09-15T22:03:21.046Z,15.05
2022-09-15T22:05:47.464Z,15.03
2022-09-15T22:08:16.050Z,14.99
2022-09-15T22:10:43.107Z,14.94
2022-09-15T22:13:10.671Z,14.90
2022-09-15T22:15:37.423Z,14.89
2022-09-15T22:18:03.989Z,14.85
2022-09-15T22:20:30.992Z,14.85
2022-09-15T22:23:00.400Z,14.82
2022-09-15T22:25:27.196Z,14.80
2022-09-15T22:27:53.600Z,14.77
2022-09-15T22:30:20.011Z,14.76
2022-09-15T22:32:46.418Z,14.73
2022-09-15T22:35:12.865Z,14.71
2022-09-15T22:37:39.267Z,14.70
2022-09-15T22:40:06.244Z,14.67
2022-09-15T22:42:32.662Z,14.67
2022-09-15T22:44:59.256Z,14.64
2022-09-15T22:47:25.710Z,14.61
2022-09-15T22:49:52.169Z,14.56
2022-09-15T22:52:18.855Z,14.55
2022-09-15T22:54:45.255Z,14.52
2022-09-15T22:57:11.658Z,14.51
2022-09-15T22:59:38.060Z,14.52
2022-09-15T23:02:04.544Z,14.48
2022-09-15T23:04:30.987Z,14.48
2022-09-15T23:06:57.385Z,14.45
2022-09-15T23:09:23.814Z,14.43
2022-09-15T23:11:50.350Z,14.43
2022-09-15T23:14:18.018Z,14.39
2022-09-15T23:16:44.995Z,14.38
2022-09-15T23:19:12.455Z,14.36
2022-09-15T23:21:39.186Z,14.34
2022-09-15T23:24:05.810Z,14.33
2022-09-15T23:26:32.516Z,14.29
2022-09-15T23:28:59.001Z,14.29
2022-09-15T23:31:25.569Z,14.28
2022-09-15T23:33:52.055Z,14.22
2022-09-15T23:36:21.997Z,14.15
2022-09-15T23:38:49.243Z,14.16
2022-09-15T23:41:16.586Z,14.17
2022-09-15T23:43:43.346Z,14.15
2022-09-15T23:46:10.121Z,14.15
2022-09-15T23:48:36.926Z,14.12
2022-09-15T23:51:04.581Z,14.09
2022-09-15T23:53:31.089Z,14.10
2022-09-15T23:55:57.563Z,14.09
2022-09-15T23:58:24.120Z,14.05
